sensor_id;sensor_type;location;lat;lon;timestamp;P1;durP1;ratioP1;P2;durP2;ratioP2
74267;SDS011;62638;51.362;12.472;2022-08-05T00:01:53;3.93;;;3.10;;
74267;SDS011;62638;51.362;12.472;2022-08-05T00:04:19;4.23;;;3.40;;
74267;SDS011;62638;51.362;12.472;2022-08-05T00:06:44;3.93;;;3.50;;
74267;SDS011;62638;51.362;12.472;2022-08-05T00:09:09;4.95;;;3.22;;
74267;SDS011;62638;51.362;12.472;2022-08-05T00:11:34;5.87;;;3.60;;
74267;SDS011;62638;51.362;12.472;2022-08-05T00:14:00;6.18;;;3.38;;
74267;SDS011;62638;51.362;12.472;2022-08-05T00:16:27;9.75;;;3.80;;
74267;SDS011;62638;51.362;12.472;2022-08-05T00:18:52;5.60;;;3.25;;
74267;SDS011;62638;51.362;12.472;2022-08-05T00:21:17;4.43;;;3.50;;
74267;SDS011;62638;51.362;12.472;2022-08-05T00:23:43;4.07;;;3.25;;
74267;SDS011;62638;51.362;12.472;2022-08-05T00:26:10;4.68;;;3.92;;
74267;SDS011;62638;51.362;12.472;2022-08-05T00:28:36;6.50;;;3.58;;
74267;SDS011;62638;51.362;12.472;2022-08-05T00:31:02;3.50;;;3.08;;
74267;SDS011;62638;51.362;12.472;2022-08-05T00:33:27;4.60;;;3.00;;
74267;SDS011;62638;51.362;12.472;2022-08-05T00:35:53;5.80;;;3.10;;
74267;SDS011;62638;51.362;12.472;2022-08-05T00:38:18;4.13;;;2.80;;
74267;SDS011;62638;51.362;12.472;2022-08-05T00:40:47;6.50;;;2.90;;
74267;SDS011;62638;51.362;12.472;2022-08-05T00:43:15;7.18;;;3.40;;
74267;SDS011;62638;51.362;12.472;2022-08-05T00:45:41;4.88;;;2.95;;
74267;SDS011;62638;51.362;12.472;2022-08-05T00:48:08;4.40;;;2.80;;
74267;SDS011;62638;51.362;12.472;2022-08-05T00:50:38;4.22;;;2.72;;
74267;SDS011;62638;51.362;12.472;2022-08-05T00:53:04;5.13;;;3.08;;
74267;SDS011;62638;51.362;12.472;2022-08-05T00:55:30;4.60;;;3.13;;
74267;SDS011;62638;51.362;12.472;2022-08-05T00:57:55;4.07;;;3.30;;
74267;SDS011;62638;51.362;12.472;2022-08-05T01:00:20;6.15;;;3.05;;
74267;SDS011;62638;51.362;12.472;2022-08-05T01:02:45;5.97;;;3.00;;
74267;SDS011;62638;51.362;12.472;2022-08-05T01:05:11;5.57;;;2.87;;
74267;SDS011;62638;51.362;12.472;2022-08-05T01:07:36;3.60;;;3.22;;
74267;SDS011;62638;51.362;12.472;2022-08-05T01:10:02;4.95;;;3.28;;
74267;SDS011;62638;51.362;12.472;2022-08-05T01:12:29;5.45;;;3.22;;
74267;SDS011;62638;51.362;12.472;2022-08-05T01:15:04;4.50;;;2.87;;
74267;SDS011;62638;51.362;12.472;2022-08-05T01:17:34;4.00;;;3.00;;
74267;SDS011;62638;51.362;12.472;2022-08-05T01:23:03;4.10;;;3.08;;
74267;SDS011;62638;51.362;12.472;2022-08-05T01:31:38;6.07;;;3.28;;
74267;SDS011;62638;51.362;12.472;2022-08-05T01:37:11;6.47;;;3.33;;
74267;SDS011;62638;51.362;12.472;2022-08-05T01:39:42;5.40;;;3.30;;
74267;SDS011;62638;51.362;12.472;2022-08-05T01:42:12;6.68;;;3.42;;
74267;SDS011;62638;51.362;12.472;2022-08-05T01:44:38;4.95;;;3.33;;
74267;SDS011;62638;51.362;12.472;2022-08-05T01:47:04;5.13;;;3.33;;
74267;SDS011;62638;51.362;12.472;2022-08-05T01:49:31;4.93;;;3.33;;
74267;SDS011;62638;51.362;12.472;2022-08-05T01:52:00;4.55;;;3.28;;
74267;SDS011;62638;51.362;12.472;2022-08-05T01:54:35;7.00;;;3.55;;
74267;SDS011;62638;51.362;12.472;2022-08-05T01:57:05;6.10;;;3.22;;
74267;SDS011;62638;51.362;12.472;2022-08-05T01:59:33;6.05;;;3.60;;
74267;SDS011;62638;51.362;12.472;2022-08-05T02:01:59;8.82;;;4.13;;
74267;SDS011;62638;51.362;12.472;2022-08-05T02:04:27;7.20;;;3.85;;
74267;SDS011;62638;51.362;12.472;2022-08-05T02:06:55;6.05;;;3.85;;
74267;SDS011;62638;51.362;12.472;2022-08-05T02:09:21;7.10;;;3.55;;
74267;SDS011;62638;51.362;12.472;2022-08-05T02:11:51;5.07;;;3.63;;
74267;SDS011;62638;51.362;12.472;2022-08-05T02:14:20;5.68;;;4.00;;
74267;SDS011;62638;51.362;12.472;2022-08-05T02:16:53;6.35;;;3.70;;
74267;SDS011;62638;51.362;12.472;2022-08-05T02:19:29;4.88;;;3.88;;
74267;SDS011;62638;51.362;12.472;2022-08-05T02:21:58;6.53;;;3.63;;
74267;SDS011;62638;51.362;12.472;2022-08-05T02:24:31;10.55;;;4.18;;
74267;SDS011;62638;51.362;12.472;2022-08-05T02:27:01;6.90;;;4.32;;
74267;SDS011;62638;51.362;12.472;2022-08-05T02:31:56;7.32;;;4.22;;
74267;SDS011;62638;51.362;12.472;2022-08-05T02:34:21;7.40;;;4.13;;
74267;SDS011;62638;51.362;12.472;2022-08-05T02:36:49;7.20;;;4.10;;
74267;SDS011;62638;51.362;12.472;2022-08-05T02:39:18;6.55;;;3.95;;
74267;SDS011;62638;51.362;12.472;2022-08-05T02:41:48;6.75;;;4.50;;
74267;SDS011;62638;51.362;12.472;2022-08-05T02:44:16;7.30;;;4.32;;
74267;SDS011;62638;51.362;12.472;2022-08-05T02:46:44;5.78;;;3.95;;
74267;SDS011;62638;51.362;12.472;2022-08-05T02:49:12;10.25;;;4.20;;
74267;SDS011;62638;51.362;12.472;2022-08-05T02:51:39;6.40;;;4.63;;
74267;SDS011;62638;51.362;12.472;2022-08-05T02:54:05;5.78;;;4.10;;
74267;SDS011;62638;51.362;12.472;2022-08-05T02:56:31;9.18;;;4.22;;
74267;SDS011;62638;51.362;12.472;2022-08-05T02:58:58;6.80;;;4.30;;
74267;SDS011;62638;51.362;12.472;2022-08-05T03:01:24;9.23;;;4.03;;
74267;SDS011;62638;51.362;12.472;2022-08-05T03:03:57;5.35;;;4.05;;
74267;SDS011;62638;51.362;12.472;2022-08-05T03:06:24;6.32;;;4.30;;
74267;SDS011;62638;51.362;12.472;2022-08-05T03:08:50;4.90;;;3.88;;
74267;SDS011;62638;51.362;12.472;2022-08-05T03:11:18;5.93;;;4.38;;
74267;SDS011;62638;51.362;12.472;2022-08-05T03:13:47;6.28;;;4.25;;
74267;SDS011;62638;51.362;12.472;2022-08-05T03:16:13;6.75;;;4.55;;
74267;SDS011;62638;51.362;12.472;2022-08-05T03:18:39;6.80;;;4.28;;
74267;SDS011;62638;51.362;12.472;2022-08-05T03:21:04;6.05;;;4.60;;
74267;SDS011;62638;51.362;12.472;2022-08-05T03:23:30;9.05;;;4.90;;
74267;SDS011;62638;51.362;12.472;2022-08-05T03:25:57;6.45;;;4.28;;
74267;SDS011;62638;51.362;12.472;2022-08-05T03:28:22;6.90;;;4.32;;
74267;SDS011;62638;51.362;12.472;2022-08-05T03:30:48;6.20;;;4.43;;
74267;SDS011;62638;51.362;12.472;2022-08-05T03:33:14;9.15;;;5.05;;
74267;SDS011;62638;51.362;12.472;2022-08-05T03:35:41;7.90;;;4.88;;
74267;SDS011;62638;51.362;12.472;2022-08-05T03:38:09;6.25;;;4.07;;
74267;SDS011;62638;51.362;12.472;2022-08-05T03:40:38;8.73;;;5.13;;
74267;SDS011;62638;51.362;12.472;2022-08-05T03:43:07;7.75;;;4.55;;
74267;SDS011;62638;51.362;12.472;2022-08-05T03:45:32;8.07;;;4.90;;
74267;SDS011;62638;51.362;12.472;2022-08-05T03:47:58;6.63;;;5.07;;
74267;SDS011;62638;51.362;12.472;2022-08-05T03:50:23;8.47;;;4.47;;
74267;SDS011;62638;51.362;12.472;2022-08-05T03:53:04;7.45;;;4.50;;
74267;SDS011;62638;51.362;12.472;2022-08-05T03:55:34;8.80;;;4.82;;
74267;SDS011;62638;51.362;12.472;2022-08-05T03:58:03;5.68;;;4.55;;
74267;SDS011;62638;51.362;12.472;2022-08-05T04:00:34;6.72;;;4.40;;
74267;SDS011;62638;51.362;12.472;2022-08-05T04:03:01;8.95;;;5.57;;
74267;SDS011;62638;51.362;12.472;2022-08-05T04:05:29;8.20;;;4.22;;
74267;SDS011;62638;51.362;12.472;2022-08-05T04:07:56;7.40;;;4.53;;
74267;SDS011;62638;51.362;12.472;2022-08-05T04:10:22;7.65;;;4.13;;
74267;SDS011;62638;51.362;12.472;2022-08-05T04:12:47;6.07;;;4.50;;
74267;SDS011;62638;51.362;12.472;2022-08-05T04:15:13;6.85;;;4.13;;
74267;SDS011;62638;51.362;12.472;2022-08-05T04:17:38;7.83;;;4.67;;
74267;SDS011;62638;51.362;12.472;2022-08-05T04:20:04;7.22;;;4.20;;
74267;SDS011;62638;51.362;12.472;2022-08-05T04:22:29;10.00;;;4.60;;
74267;SDS011;62638;51.362;12.472;2022-08-05T04:24:55;11.77;;;4.60;;
74267;SDS011;62638;51.362;12.472;2022-08-05T04:27:20;9.63;;;4.63;;
74267;SDS011;62638;51.362;12.472;2022-08-05T04:29:45;5.68;;;4.25;;
74267;SDS011;62638;51.362;12.472;2022-08-05T04:32:11;14.57;;;4.53;;
74267;SDS011;62638;51.362;12.472;2022-08-05T04:34:36;11.93;;;4.22;;
74267;SDS011;62638;51.362;12.472;2022-08-05T04:37:02;6.40;;;4.25;;
74267;SDS011;62638;51.362;12.472;2022-08-05T04:39:28;6.78;;;4.15;;
74267;SDS011;62638;51.362;12.472;2022-08-05T04:41:53;5.18;;;4.32;;
74267;SDS011;62638;51.362;12.472;2022-08-05T04:44:18;8.00;;;5.07;;
74267;SDS011;62638;51.362;12.472;2022-08-05T04:46:44;6.20;;;4.20;;
74267;SDS011;62638;51.362;12.472;2022-08-05T04:49:09;6.33;;;4.30;;
74267;SDS011;62638;51.362;12.472;2022-08-05T04:51:34;8.00;;;3.60;;
74267;SDS011;62638;51.362;12.472;2022-08-05T04:53:59;8.77;;;3.97;;
74267;SDS011;62638;51.362;12.472;2022-08-05T04:56:25;7.53;;;3.93;;
74267;SDS011;62638;51.362;12.472;2022-08-05T04:58:50;5.35;;;4.22;;
74267;SDS011;62638;51.362;12.472;2022-08-05T05:01:16;7.07;;;3.72;;
74267;SDS011;62638;51.362;12.472;2022-08-05T05:03:41;5.20;;;4.32;;
74267;SDS011;62638;51.362;12.472;2022-08-05T05:06:10;5.50;;;3.73;;
74267;SDS011;62638;51.362;12.472;2022-08-05T05:08:36;6.35;;;3.72;;
74267;SDS011;62638;51.362;12.472;2022-08-05T05:11:01;6.65;;;3.67;;
74267;SDS011;62638;51.362;12.472;2022-08-05T05:13:27;5.53;;;3.58;;
74267;SDS011;62638;51.362;12.472;2022-08-05T05:15:52;6.73;;;3.57;;
74267;SDS011;62638;51.362;12.472;2022-08-05T05:18:18;7.90;;;3.37;;
74267;SDS011;62638;51.362;12.472;2022-08-05T05:20:43;5.88;;;4.00;;
74267;SDS011;62638;51.362;12.472;2022-08-05T05:23:10;6.78;;;3.40;;
74267;SDS011;62638;51.362;12.472;2022-08-05T05:25:37;6.53;;;3.55;;
74267;SDS011;62638;51.362;12.472;2022-08-05T05:28:04;16.20;;;4.43;;
74267;SDS011;62638;51.362;12.472;2022-08-05T05:30:29;8.43;;;3.60;;
74267;SDS011;62638;51.362;12.472;2022-08-05T05:32:55;5.80;;;3.63;;
74267;SDS011;62638;51.362;12.472;2022-08-05T05:35:21;6.95;;;3.97;;
74267;SDS011;62638;51.362;12.472;2022-08-05T05:37:47;6.97;;;3.53;;
74267;SDS011;62638;51.362;12.472;2022-08-05T05:40:17;6.35;;;3.78;;
74267;SDS011;62638;51.362;12.472;2022-08-05T05:42:44;6.85;;;3.60;;
74267;SDS011;62638;51.362;12.472;2022-08-05T05:45:10;6.75;;;3.50;;
74267;SDS011;62638;51.362;12.472;2022-08-05T05:47:35;10.32;;;4.88;;
74267;SDS011;62638;51.362;12.472;2022-08-05T05:50:01;8.73;;;4.25;;
74267;SDS011;62638;51.362;12.472;2022-08-05T05:52:26;10.90;;;3.90;;
74267;SDS011;62638;51.362;12.472;2022-08-05T05:54:52;6.18;;;4.22;;
74267;SDS011;62638;51.362;12.472;2022-08-05T05:57:17;5.40;;;3.80;;
74267;SDS011;62638;51.362;12.472;2022-08-05T05:59:43;6.78;;;4.40;;
74267;SDS011;62638;51.362;12.472;2022-08-05T06:02:08;6.37;;;3.53;;
74267;SDS011;62638;51.362;12.472;2022-08-05T06:04:34;6.97;;;4.07;;
74267;SDS011;62638;51.362;12.472;2022-08-05T06:06:59;5.55;;;4.00;;
74267;SDS011;62638;51.362;12.472;2022-08-05T06:09:24;7.38;;;3.78;;
74267;SDS011;62638;51.362;12.472;2022-08-05T06:11:50;5.60;;;3.20;;
74267;SDS011;62638;51.362;12.472;2022-08-05T06:14:15;8.82;;;3.53;;
74267;SDS011;62638;51.362;12.472;2022-08-05T06:16:40;7.47;;;3.50;;
74267;SDS011;62638;51.362;12.472;2022-08-05T06:19:05;5.37;;;3.80;;
74267;SDS011;62638;51.362;12.472;2022-08-05T06:21:31;4.80;;;3.30;;
74267;SDS011;62638;51.362;12.472;2022-08-05T06:23:56;7.13;;;3.75;;
74267;SDS011;62638;51.362;12.472;2022-08-05T06:26:22;4.45;;;3.40;;
74267;SDS011;62638;51.362;12.472;2022-08-05T06:28:47;4.07;;;2.87;;
74267;SDS011;62638;51.362;12.472;2022-08-05T06:31:12;5.60;;;3.23;;
74267;SDS011;62638;51.362;12.472;2022-08-05T06:33:38;5.13;;;3.13;;
74267;SDS011;62638;51.362;12.472;2022-08-05T06:36:03;8.57;;;3.73;;
74267;SDS011;62638;51.362;12.472;2022-08-05T06:38:29;6.10;;;3.58;;
74267;SDS011;62638;51.362;12.472;2022-08-05T06:40:54;6.50;;;3.67;;
74267;SDS011;62638;51.362;12.472;2022-08-05T06:43:19;7.83;;;4.23;;
74267;SDS011;62638;51.362;12.472;2022-08-05T06:45:45;9.02;;;3.90;;
74267;SDS011;62638;51.362;12.472;2022-08-05T06:48:10;6.03;;;3.63;;
74267;SDS011;62638;51.362;12.472;2022-08-05T06:50:35;4.47;;;3.30;;
74267;SDS011;62638;51.362;12.472;2022-08-05T06:53:00;6.32;;;4.10;;
74267;SDS011;62638;51.362;12.472;2022-08-05T06:55:26;7.77;;;4.07;;
74267;SDS011;62638;51.362;12.472;2022-08-05T06:57:51;9.00;;;4.93;;
74267;SDS011;62638;51.362;12.472;2022-08-05T07:00:16;7.50;;;3.93;;
74267;SDS011;62638;51.362;12.472;2022-08-05T07:02:43;5.90;;;3.63;;
74267;SDS011;62638;51.362;12.472;2022-08-05T07:05:09;9.90;;;3.58;;
74267;SDS011;62638;51.362;12.472;2022-08-05T07:07:35;7.45;;;4.28;;
74267;SDS011;62638;51.362;12.472;2022-08-05T07:10:00;7.05;;;3.28;;
74267;SDS011;62638;51.362;12.472;2022-08-05T07:12:26;5.97;;;3.80;;
74267;SDS011;62638;51.362;12.472;2022-08-05T07:15:09;8.43;;;3.67;;
74267;SDS011;62638;51.362;12.472;2022-08-05T07:17:53;5.28;;;3.42;;
74267;SDS011;62638;51.362;12.472;2022-08-05T07:20:19;8.60;;;3.67;;
74267;SDS011;62638;51.362;12.472;2022-08-05T07:22:44;7.50;;;3.47;;
74267;SDS011;62638;51.362;12.472;2022-08-05T07:25:09;6.60;;;3.20;;
74267;SDS011;62638;51.362;12.472;2022-08-05T07:27:34;6.53;;;3.70;;
74267;SDS011;62638;51.362;12.472;2022-08-05T07:30:00;5.07;;;3.50;;
74267;SDS011;62638;51.362;12.472;2022-08-05T07:32:25;6.10;;;3.77;;
74267;SDS011;62638;51.362;12.472;2022-08-05T07:34:50;5.13;;;3.50;;
74267;SDS011;62638;51.362;12.472;2022-08-05T07:37:17;8.00;;;4.25;;
74267;SDS011;62638;51.362;12.472;2022-08-05T07:39:42;8.02;;;4.22;;
74267;SDS011;62638;51.362;12.472;2022-08-05T07:42:08;6.50;;;3.70;;
74267;SDS011;62638;51.362;12.472;2022-08-05T07:44:33;8.07;;;3.63;;
74267;SDS011;62638;51.362;12.472;2022-08-05T07:46:58;7.97;;;3.40;;
74267;SDS011;62638;51.362;12.472;2022-08-05T07:49:25;5.90;;;3.60;;
74267;SDS011;62638;51.362;12.472;2022-08-05T07:51:50;8.68;;;4.18;;
74267;SDS011;62638;51.362;12.472;2022-08-05T07:54:15;9.17;;;3.37;;
74267;SDS011;62638;51.362;12.472;2022-08-05T07:56:40;7.60;;;3.35;;
74267;SDS011;62638;51.362;12.472;2022-08-05T07:59:06;5.80;;;3.20;;
74267;SDS011;62638;51.362;12.472;2022-08-05T08:01:31;6.83;;;3.77;;
74267;SDS011;62638;51.362;12.472;2022-08-05T08:03:56;7.33;;;3.80;;
74267;SDS011;62638;51.362;12.472;2022-08-05T08:06:21;7.40;;;3.63;;
74267;SDS011;62638;51.362;12.472;2022-08-05T08:08:47;6.05;;;3.85;;
74267;SDS011;62638;51.362;12.472;2022-08-05T08:11:12;5.97;;;4.17;;
74267;SDS011;62638;51.362;12.472;2022-08-05T08:13:39;5.22;;;3.58;;
74267;SDS011;62638;51.362;12.472;2022-08-05T08:16:04;6.07;;;3.45;;
74267;SDS011;62638;51.362;12.472;2022-08-05T08:18:30;8.95;;;3.83;;
74267;SDS011;62638;51.362;12.472;2022-08-05T08:20:55;5.90;;;3.58;;
74267;SDS011;62638;51.362;12.472;2022-08-05T08:23:20;6.70;;;3.50;;
74267;SDS011;62638;51.362;12.472;2022-08-05T08:25:45;5.70;;;3.08;;
74267;SDS011;62638;51.362;12.472;2022-08-05T08:28:11;7.93;;;3.50;;
74267;SDS011;62638;51.362;12.472;2022-08-05T08:30:36;6.22;;;3.35;;
74267;SDS011;62638;51.362;12.472;2022-08-05T08:33:08;5.53;;;3.30;;
74267;SDS011;62638;51.362;12.472;2022-08-05T08:35:35;4.43;;;3.28;;
74267;SDS011;62638;51.362;12.472;2022-08-05T08:38:01;5.93;;;3.42;;
74267;SDS011;62638;51.362;12.472;2022-08-05T08:40:26;7.90;;;3.13;;
74267;SDS011;62638;51.362;12.472;2022-08-05T08:42:53;5.18;;;3.42;;
74267;SDS011;62638;51.362;12.472;2022-08-05T08:45:21;5.88;;;2.80;;
74267;SDS011;62638;51.362;12.472;2022-08-05T08:47:48;7.22;;;3.05;;
74267;SDS011;62638;51.362;12.472;2022-08-05T08:50:15;6.22;;;2.97;;
74267;SDS011;62638;51.362;12.472;2022-08-05T08:52:45;8.18;;;3.80;;
74267;SDS011;62638;51.362;12.472;2022-08-05T08:55:17;7.43;;;3.03;;
74267;SDS011;62638;51.362;12.472;2022-08-05T08:57:43;5.55;;;3.40;;
74267;SDS011;62638;51.362;12.472;2022-08-05T09:02:36;8.02;;;2.92;;
74267;SDS011;62638;51.362;12.472;2022-08-05T09:05:02;6.87;;;3.20;;
74267;SDS011;62638;51.362;12.472;2022-08-05T09:07:27;6.93;;;3.15;;
74267;SDS011;62638;51.362;12.472;2022-08-05T09:09:52;5.43;;;2.80;;
74267;SDS011;62638;51.362;12.472;2022-08-05T09:12:18;5.60;;;2.80;;
74267;SDS011;62638;51.362;12.472;2022-08-05T09:14:43;6.07;;;3.40;;
74267;SDS011;62638;51.362;12.472;2022-08-05T09:17:09;4.00;;;2.83;;
74267;SDS011;62638;51.362;12.472;2022-08-05T09:19:39;7.57;;;2.95;;
74267;SDS011;62638;51.362;12.472;2022-08-05T09:22:04;4.87;;;2.93;;
74267;SDS011;62638;51.362;12.472;2022-08-05T09:24:32;6.63;;;3.03;;
74267;SDS011;62638;51.362;12.472;2022-08-05T09:26:57;5.53;;;3.67;;
74267;SDS011;62638;51.362;12.472;2022-08-05T09:29:36;5.50;;;2.83;;
74267;SDS011;62638;51.362;12.472;2022-08-05T09:32:04;4.93;;;2.70;;
74267;SDS011;62638;51.362;12.472;2022-08-05T09:34:47;4.38;;;2.70;;
74267;SDS011;62638;51.362;12.472;2022-08-05T09:39:49;3.80;;;2.60;;
74267;SDS011;62638;51.362;12.472;2022-08-05T09:42:16;6.43;;;2.72;;
74267;SDS011;62638;51.362;12.472;2022-08-05T09:44:46;5.88;;;3.60;;
74267;SDS011;62638;51.362;12.472;2022-08-05T09:49:50;6.22;;;2.63;;
74267;SDS011;62638;51.362;12.472;2022-08-05T09:52:26;6.38;;;2.80;;
74267;SDS011;62638;51.362;12.472;2022-08-05T09:59:58;6.28;;;2.75;;
74267;SDS011;62638;51.362;12.472;2022-08-05T10:02:32;7.47;;;3.00;;
74267;SDS011;62638;51.362;12.472;2022-08-05T10:05:08;5.28;;;3.25;;
74267;SDS011;62638;51.362;12.472;2022-08-05T10:07:48;3.42;;;2.67;;
74267;SDS011;62638;51.362;12.472;2022-08-05T10:10:22;3.75;;;2.60;;
74267;SDS011;62638;51.362;12.472;2022-08-05T10:12:54;3.63;;;2.58;;
74267;SDS011;62638;51.362;12.472;2022-08-05T10:15:54;4.65;;;2.58;;
74267;SDS011;62638;51.362;12.472;2022-08-05T10:18:16;3.08;;;2.35;;
74267;SDS011;62638;51.362;12.472;2022-08-05T10:20:50;3.70;;;2.40;;
74267;SDS011;62638;51.362;12.472;2022-08-05T10:23:19;4.93;;;2.63;;
74267;SDS011;62638;51.362;12.472;2022-08-05T10:25:46;3.58;;;2.45;;
74267;SDS011;62638;51.362;12.472;2022-08-05T10:28:12;5.38;;;3.03;;
74267;SDS011;62638;51.362;12.472;2022-08-05T10:30:37;5.60;;;2.78;;
74267;SDS011;62638;51.362;12.472;2022-08-05T10:33:04;5.07;;;2.47;;
74267;SDS011;62638;51.362;12.472;2022-08-05T10:35:30;6.25;;;2.83;;
74267;SDS011;62638;51.362;12.472;2022-08-05T10:37:56;5.18;;;2.95;;
74267;SDS011;62638;51.362;12.472;2022-08-05T10:40:27;4.90;;;2.80;;
74267;SDS011;62638;51.362;12.472;2022-08-05T10:43:07;4.93;;;2.63;;
74267;SDS011;62638;51.362;12.472;2022-08-05T10:45:39;2.90;;;2.28;;
74267;SDS011;62638;51.362;12.472;2022-08-05T10:56:23;5.68;;;2.63;;
74267;SDS011;62638;51.362;12.472;2022-08-05T11:01:28;7.38;;;3.05;;
74267;SDS011;62638;51.362;12.472;2022-08-05T11:04:13;3.28;;;2.42;;
74267;SDS011;62638;51.362;12.472;2022-08-05T11:09:23;4.45;;;2.90;;
74267;SDS011;62638;51.362;12.472;2022-08-05T11:11:50;9.85;;;3.03;;
74267;SDS011;62638;51.362;12.472;2022-08-05T11:14:26;4.32;;;2.70;;
74267;SDS011;62638;51.362;12.472;2022-08-05T11:19:50;4.20;;;3.00;;
74267;SDS011;62638;51.362;12.472;2022-08-05T11:27:51;7.22;;;2.97;;
74267;SDS011;62638;51.362;12.472;2022-08-05T11:30:16;6.40;;;2.60;;
74267;SDS011;62638;51.362;12.472;2022-08-05T11:32:42;9.13;;;2.93;;
74267;SDS011;62638;51.362;12.472;2022-08-05T11:35:07;3.90;;;2.50;;
74267;SDS011;62638;51.362;12.472;2022-08-05T11:38:11;5.18;;;2.70;;
74267;SDS011;62638;51.362;12.472;2022-08-05T11:40:55;4.57;;;2.70;;
74267;SDS011;62638;51.362;12.472;2022-08-05T11:43:25;4.53;;;2.60;;
74267;SDS011;62638;51.362;12.472;2022-08-05T11:45:50;4.57;;;2.75;;
74267;SDS011;62638;51.362;12.472;2022-08-05T11:48:15;5.25;;;3.10;;
74267;SDS011;62638;51.362;12.472;2022-08-05T11:50:41;7.47;;;2.65;;
74267;SDS011;62638;51.362;12.472;2022-08-05T11:53:06;4.22;;;2.78;;
74267;SDS011;62638;51.362;12.472;2022-08-05T11:55:32;4.57;;;2.80;;
74267;SDS011;62638;51.362;12.472;2022-08-05T11:57:57;6.17;;;2.80;;
74267;SDS011;62638;51.362;12.472;2022-08-05T12:00:26;3.78;;;2.33;;
74267;SDS011;62638;51.362;12.472;2022-08-05T12:02:52;5.72;;;2.70;;
74267;SDS011;62638;51.362;12.472;2022-08-05T12:05:25;2.97;;;2.40;;
74267;SDS011;62638;51.362;12.472;2022-08-05T12:07:55;4.50;;;2.97;;
74267;SDS011;62638;51.362;12.472;2022-08-05T12:10:21;3.45;;;3.05;;
74267;SDS011;62638;51.362;12.472;2022-08-05T12:12:50;7.57;;;2.92;;
74267;SDS011;62638;51.362;12.472;2022-08-05T12:15:20;3.70;;;2.80;;
74267;SDS011;62638;51.362;12.472;2022-08-05T12:17:45;5.90;;;3.00;;
74267;SDS011;62638;51.362;12.472;2022-08-05T12:20:11;5.80;;;2.92;;
74267;SDS011;62638;51.362;12.472;2022-08-05T12:22:37;4.82;;;2.45;;
74267;SDS011;62638;51.362;12.472;2022-08-05T12:25:02;5.30;;;3.28;;
74267;SDS011;62638;51.362;12.472;2022-08-05T12:27:29;4.70;;;3.08;;
74267;SDS011;62638;51.362;12.472;2022-08-05T12:30:15;5.35;;;2.70;;
74267;SDS011;62638;51.362;12.472;2022-08-05T12:32:44;5.05;;;2.72;;
74267;SDS011;62638;51.362;12.472;2022-08-05T12:35:11;4.97;;;2.70;;
74267;SDS011;62638;51.362;12.472;2022-08-05T12:37:39;5.03;;;2.90;;
74267;SDS011;62638;51.362;12.472;2022-08-05T12:40:06;6.22;;;2.88;;
74267;SDS011;62638;51.362;12.472;2022-08-05T12:42:34;4.07;;;2.60;;
74267;SDS011;62638;51.362;12.472;2022-08-05T12:45:06;6.07;;;3.10;;
74267;SDS011;62638;51.362;12.472;2022-08-05T12:47:33;3.92;;;2.75;;
74267;SDS011;62638;51.362;12.472;2022-08-05T12:49:59;5.40;;;2.80;;
74267;SDS011;62638;51.362;12.472;2022-08-05T12:52:25;5.50;;;2.90;;
74267;SDS011;62638;51.362;12.472;2022-08-05T12:54:51;5.20;;;2.78;;
74267;SDS011;62638;51.362;12.472;2022-08-05T12:57:17;4.47;;;2.50;;
74267;SDS011;62638;51.362;12.472;2022-08-05T12:59:52;3.70;;;2.83;;
74267;SDS011;62638;51.362;12.472;2022-08-05T13:02:23;3.85;;;3.00;;
74267;SDS011;62638;51.362;12.472;2022-08-05T13:04:50;5.03;;;3.00;;
74267;SDS011;62638;51.362;12.472;2022-08-05T13:07:18;7.15;;;3.42;;
74267;SDS011;62638;51.362;12.472;2022-08-05T13:09:53;5.38;;;2.88;;
74267;SDS011;62638;51.362;12.472;2022-08-05T13:12:23;4.82;;;3.30;;
74267;SDS011;62638;51.362;12.472;2022-08-05T13:14:55;7.43;;;2.75;;
74267;SDS011;62638;51.362;12.472;2022-08-05T13:17:23;6.22;;;3.20;;
74267;SDS011;62638;51.362;12.472;2022-08-05T13:22:33;5.00;;;3.20;;
74267;SDS011;62638;51.362;12.472;2022-08-05T13:25:01;7.20;;;2.88;;
74267;SDS011;62638;51.362;12.472;2022-08-05T13:27:30;6.75;;;3.13;;
74267;SDS011;62638;51.362;12.472;2022-08-05T13:29:56;7.07;;;2.90;;
74267;SDS011;62638;51.362;12.472;2022-08-05T13:32:22;8.10;;;3.20;;
74267;SDS011;62638;51.362;12.472;2022-08-05T13:34:48;4.80;;;2.92;;
74267;SDS011;62638;51.362;12.472;2022-08-05T13:37:15;6.35;;;3.40;;
74267;SDS011;62638;51.362;12.472;2022-08-05T13:39:41;4.35;;;2.97;;
74267;SDS011;62638;51.362;12.472;2022-08-05T13:42:07;5.25;;;2.97;;
74267;SDS011;62638;51.362;12.472;2022-08-05T13:44:33;4.88;;;3.15;;
74267;SDS011;62638;51.362;12.472;2022-08-05T13:46:58;4.23;;;3.00;;
74267;SDS011;62638;51.362;12.472;2022-08-05T13:49:24;5.90;;;3.37;;
74267;SDS011;62638;51.362;12.472;2022-08-05T13:51:49;5.77;;;3.33;;
74267;SDS011;62638;51.362;12.472;2022-08-05T13:54:15;6.07;;;2.85;;
74267;SDS011;62638;51.362;12.472;2022-08-05T13:56:41;6.28;;;3.40;;
74267;SDS011;62638;51.362;12.472;2022-08-05T13:59:07;3.80;;;2.90;;
74267;SDS011;62638;51.362;12.472;2022-08-05T14:01:33;5.37;;;3.47;;
74267;SDS011;62638;51.362;12.472;2022-08-05T14:04:00;8.15;;;3.13;;
74267;SDS011;62638;51.362;12.472;2022-08-05T14:06:43;4.68;;;2.97;;
74267;SDS011;62638;51.362;12.472;2022-08-05T14:09:09;4.50;;;2.90;;
74267;SDS011;62638;51.362;12.472;2022-08-05T14:11:34;4.83;;;3.00;;
74267;SDS011;62638;51.362;12.472;2022-08-05T14:14:03;4.72;;;2.50;;
74267;SDS011;62638;51.362;12.472;2022-08-05T14:16:28;4.13;;;2.63;;
74267;SDS011;62638;51.362;12.472;2022-08-05T14:18:54;4.23;;;2.13;;
74267;SDS011;62638;51.362;12.472;2022-08-05T14:21:19;4.93;;;2.00;;
74267;SDS011;62638;51.362;12.472;2022-08-05T14:23:44;3.08;;;1.90;;
74267;SDS011;62638;51.362;12.472;2022-08-05T14:26:10;4.13;;;2.10;;
74267;SDS011;62638;51.362;12.472;2022-08-05T14:28:35;3.17;;;2.15;;
74267;SDS011;62638;51.362;12.472;2022-08-05T14:31:00;3.00;;;1.93;;
74267;SDS011;62638;51.362;12.472;2022-08-05T14:33:26;3.00;;;1.77;;
74267;SDS011;62638;51.362;12.472;2022-08-05T14:35:51;2.40;;;1.95;;
74267;SDS011;62638;51.362;12.472;2022-08-05T14:38:17;2.70;;;1.80;;
74267;SDS011;62638;51.362;12.472;2022-08-05T14:40:42;3.07;;;2.00;;
74267;SDS011;62638;51.362;12.472;2022-08-05T14:43:07;2.60;;;1.83;;
74267;SDS011;62638;51.362;12.472;2022-08-05T14:45:32;2.20;;;1.77;;
74267;SDS011;62638;51.362;12.472;2022-08-05T14:47:58;4.07;;;2.00;;
74267;SDS011;62638;51.362;12.472;2022-08-05T14:50:23;2.20;;;1.70;;
74267;SDS011;62638;51.362;12.472;2022-08-05T14:52:48;2.60;;;1.80;;
74267;SDS011;62638;51.362;12.472;2022-08-05T14:55:13;2.73;;;2.03;;
74267;SDS011;62638;51.362;12.472;2022-08-05T14:57:39;4.68;;;2.03;;
74267;SDS011;62638;51.362;12.472;2022-08-05T15:00:04;3.07;;;2.00;;
74267;SDS011;62638;51.362;12.472;2022-08-05T15:02:30;5.03;;;1.85;;
74267;SDS011;62638;51.362;12.472;2022-08-05T15:04:55;2.42;;;2.10;;
74267;SDS011;62638;51.362;12.472;2022-08-05T15:07:21;3.43;;;1.70;;
74267;SDS011;62638;51.362;12.472;2022-08-05T15:09:46;2.95;;;1.85;;
74267;SDS011;62638;51.362;12.472;2022-08-05T15:12:11;2.88;;;2.10;;
74267;SDS011;62638;51.362;12.472;2022-08-05T15:14:36;5.07;;;1.80;;
74267;SDS011;62638;51.362;12.472;2022-08-05T15:17:02;3.72;;;1.98;;
74267;SDS011;62638;51.362;12.472;2022-08-05T15:19:28;3.22;;;2.22;;
74267;SDS011;62638;51.362;12.472;2022-08-05T15:21:54;4.40;;;2.03;;
74267;SDS011;62638;51.362;12.472;2022-08-05T15:24:19;2.97;;;2.00;;
74267;SDS011;62638;51.362;12.472;2022-08-05T15:26:44;4.90;;;2.20;;